createdAt,value
2022-11-29T00:00:49.418Z,9.15
2022-11-29T00:03:16.376Z,7.70
2022-11-29T00:05:42.958Z,8.38
2022-11-29T00:08:09.760Z,9.82
2022-11-29T00:10:37.889Z,10.35
2022-11-29T00:13:05.076Z,8.65
2022-11-29T00:15:36.824Z,10.38
2022-11-29T00:18:03.953Z,10.20
2022-11-29T00:20:31.186Z,9.15
2022-11-29T00:22:57.707Z,9.63
2022-11-29T00:25:24.246Z,9.75
2022-11-29T00:27:51.493Z,10.02
2022-11-29T00:30:19.297Z,10.32
2022-11-29T00:32:46.070Z,10.38
2022-11-29T00:35:12.763Z,10.88
2022-11-29T00:37:39.159Z,9.82
2022-11-29T00:40:06.359Z,9.18
2022-11-29T00:42:32.795Z,8.65
2022-11-29T00:44:59.227Z,11.05
2022-11-29T00:47:25.634Z,11.52
2022-11-29T00:49:52.107Z,11.30
2022-11-29T00:52:18.610Z,9.32
2022-11-29T00:54:45.450Z,12.30
2022-11-29T00:57:12.150Z,11.82
2022-11-29T00:59:38.561Z,12.30
2022-11-29T01:02:05.090Z,11.88
2022-11-29T01:04:31.538Z,13.35
2022-11-29T01:06:57.972Z,11.52
2022-11-29T01:09:24.399Z,13.52
2022-11-29T01:11:50.929Z,14.73
2022-11-29T01:14:17.414Z,12.85
2022-11-29T01:16:43.855Z,13.45
2022-11-29T01:19:10.746Z,14.60
2022-11-29T01:21:37.628Z,11.98
2022-11-29T01:24:04.333Z,10.98
2022-11-29T01:26:31.962Z,11.45
2022-11-29T01:28:59.219Z,10.43
2022-11-29T01:31:31.563Z,10.98
2022-11-29T01:34:01.090Z,11.77
2022-11-29T01:36:28.611Z,11.32
2022-11-29T01:38:55.113Z,11.60
2022-11-29T01:41:27.330Z,9.82
2022-11-29T01:44:11.903Z,10.48
2022-11-29T01:46:48.573Z,11.27
2022-11-29T01:49:25.174Z,11.38
2022-11-29T01:51:54.183Z,12.52
2022-11-29T01:54:21.712Z,11.50
2022-11-29T01:56:50.359Z,13.63
2022-11-29T01:59:20.405Z,12.52
2022-11-29T02:01:46.898Z,12.70
2022-11-29T02:04:13.927Z,12.80
2022-11-29T02:06:41.326Z,11.88
2022-11-29T02:09:22.153Z,12.80
2022-11-29T02:12:45.998Z,12.20
2022-11-29T02:15:25.271Z,12.48
2022-11-29T02:18:06.405Z,12.75
2022-11-29T02:21:15.624Z,12.45
2022-11-29T02:24:01.919Z,13.20
2022-11-29T02:26:59.433Z,13.75
2022-11-29T02:29:54.980Z,13.43
2022-11-29T02:32:51.746Z,14.30
2022-11-29T02:35:26.915Z,12.15
2022-11-29T02:38:24.091Z,14.60
2022-11-29T02:41:00.439Z,14.55
2022-11-29T02:43:32.766Z,13.50
2022-11-29T02:46:42.109Z,14.15
2022-11-29T02:49:45.899Z,14.55
2022-11-29T02:52:30.511Z,15.65
2022-11-29T02:55:27.450Z,13.45
2022-11-29T02:58:18.784Z,14.68
2022-11-29T03:01:00.995Z,15.48
2022-11-29T03:03:49.828Z,14.68
2022-11-29T03:06:34.453Z,14.10
2022-11-29T03:09:10.583Z,15.18
2022-11-29T03:12:09.263Z,17.40
2022-11-29T03:14:57.586Z,15.32
2022-11-29T03:17:57.364Z,16.63
2022-11-29T03:20:54.159Z,16.80
2022-11-29T03:23:43.776Z,18.92
2022-11-29T03:26:23.257Z,16.35
2022-11-29T03:29:27.479Z,16.17
2022-11-29T03:31:56.705Z,15.77
2022-11-29T03:37:05.484Z,15.13
2022-11-29T03:40:08.732Z,17.25
2022-11-29T03:42:53.189Z,15.98
2022-11-29T03:45:29.824Z,15.95
2022-11-29T03:48:03.800Z,18.75
2022-11-29T03:50:38.792Z,16.80
2022-11-29T03:53:28.906Z,17.15
2022-11-29T03:56:04.459Z,19.98
2022-11-29T03:58:54.828Z,15.70
2022-11-29T04:01:21.318Z,18.45
2022-11-29T04:04:29.506Z,21.25
2022-11-29T04:07:34.547Z,17.63
2022-11-29T04:10:20.039Z,16.27
2022-11-29T04:13:08.063Z,20.77
2022-11-29T04:15:53.292Z,21.48
2022-11-29T04:18:38.503Z,17.13
2022-11-29T04:21:14.046Z,16.50
2022-11-29T04:24:22.024Z,18.70
2022-11-29T04:27:12.586Z,15.85
2022-11-29T04:29:51.113Z,18.23
2022-11-29T04:32:44.950Z,17.25
2022-11-29T04:38:24.134Z,16.40
2022-11-29T04:40:50.532Z,15.23
2022-11-29T04:43:50.425Z,17.08
2022-11-29T04:46:17.021Z,14.27
2022-11-29T04:49:00.946Z,15.73
2022-11-29T04:51:57.453Z,18.08
2022-11-29T04:54:26.876Z,17.33
2022-11-29T04:57:29.297Z,17.70
2022-11-29T05:00:18.615Z,16.52
2022-11-29T05:02:59.981Z,17.55
2022-11-29T05:05:32.449Z,11.73
2022-11-29T05:08:20.855Z,15.85
2022-11-29T05:11:14.563Z,15.18
2022-11-29T05:13:59.117Z,14.05
2022-11-29T05:16:38.366Z,16.23
2022-11-29T05:19:19.410Z,15.40
2022-11-29T05:22:04.540Z,13.98
2022-11-29T05:24:53.723Z,15.90
2022-11-29T05:27:45.673Z,14.20
2022-11-29T05:30:16.321Z,15.27
2022-11-29T05:32:54.318Z,15.27
2022-11-29T05:35:35.876Z,16.15
2022-11-29T05:40:50.814Z,16.08
2022-11-29T05:43:43.381Z,14.05
2022-11-29T05:46:29.851Z,17.70
2022-11-29T05:49:24.423Z,17.40
2022-11-29T05:52:12.595Z,16.08
2022-11-29T05:54:53.516Z,16.15
2022-11-29T05:57:28.913Z,16.45
2022-11-29T06:02:26.660Z,16.38
2022-11-29T06:08:29.374Z,16.80
2022-11-29T06:11:15.854Z,15.38
2022-11-29T06:13:54.921Z,16.55
2022-11-29T06:17:01.789Z,18.92
2022-11-29T06:20:04.263Z,15.88
2022-11-29T06:22:42.500Z,16.23
2022-11-29T06:25:34.065Z,15.02
2022-11-29T06:28:36.505Z,16.38
2022-11-29T06:31:15.388Z,16.35
2022-11-29T06:33:56.630Z,16.33
2022-11-29T06:36:25.584Z,14.98
2022-11-29T06:38:52.163Z,13.63
2022-11-29T06:41:23.747Z,14.02
2022-11-29T06:43:50.588Z,16.27
2022-11-29T06:46:42.223Z,16.75
2022-11-29T06:49:23.977Z,15.07
2022-11-29T06:52:03.109Z,14.63
2022-11-29T06:54:49.062Z,14.57
2022-11-29T06:57:33.621Z,13.88
2022-11-29T07:00:06.703Z,14.43
2022-11-29T07:02:57.455Z,13.68
2022-11-29T07:05:28.887Z,13.55
2022-11-29T07:07:58.807Z,13.82
2022-11-29T07:10:26.699Z,13.82
2022-11-29T07:12:53.418Z,13.60
2022-11-29T07:15:22.377Z,15.23
2022-11-29T07:18:22.241Z,12.30
2022-11-29T07:20:54.345Z,12.82
2022-11-29T07:23:38.550Z,13.90
2022-11-29T07:26:12.359Z,13.05
2022-11-29T07:29:00.746Z,11.23
2022-11-29T07:31:56.175Z,14.60
2022-11-29T07:34:50.253Z,14.10
2022-11-29T07:37:22.747Z,14.27
2022-11-29T07:40:12.208Z,17.48
2022-11-29T07:42:38.610Z,16.48
2022-11-29T07:45:28.965Z,16.42
2022-11-29T07:47:55.829Z,14.85
2022-11-29T07:50:22.340Z,13.93
2022-11-29T07:52:49.175Z,13.60
2022-11-29T07:55:19.117Z,14.10
2022-11-29T07:57:46.615Z,13.32
2022-11-29T08:00:14.304Z,15.82
2022-11-29T08:02:41.645Z,16.10
2022-11-29T08:05:09.071Z,16.35
2022-11-29T08:07:40.654Z,16.85
2022-11-29T08:10:10.432Z,15.55
2022-11-29T08:12:41.524Z,16.15
2022-11-29T08:15:08.914Z,15.43
2022-11-29T08:17:38.130Z,15.00
2022-11-29T08:22:32.042Z,15.15
2022-11-29T08:24:59.849Z,15.20
2022-11-29T08:27:26.357Z,14.57
2022-11-29T08:29:52.824Z,14.85
2022-11-29T08:32:19.365Z,14.10
2022-11-29T08:34:46.093Z,15.00
2022-11-29T08:37:12.988Z,15.68
2022-11-29T08:39:39.556Z,13.68
2022-11-29T08:42:06.036Z,13.63
2022-11-29T08:44:32.498Z,13.68
2022-11-29T08:47:17.737Z,14.50
2022-11-29T08:50:02.403Z,14.75
2022-11-29T08:52:49.016Z,15.60
2022-11-29T08:55:16.574Z,16.10
2022-11-29T08:57:43.445Z,17.08
2022-11-29T09:00:10.814Z,17.50
2022-11-29T09:02:37.679Z,15.60
2022-11-29T09:05:05.347Z,13.75
2022-11-29T09:07:32.107Z,12.73
2022-11-29T09:09:58.901Z,13.73
2022-11-29T09:12:25.475Z,14.43
2022-11-29T09:14:51.944Z,12.75
2022-11-29T09:17:18.548Z,12.98
2022-11-29T09:19:45.027Z,13.82
2022-11-29T09:22:11.619Z,12.45
2022-11-29T09:24:38.061Z,11.15
2022-11-29T09:27:04.587Z,11.80
2022-11-29T09:29:31.057Z,11.50
2022-11-29T09:31:57.718Z,11.13
2022-11-29T09:34:24.569Z,12.00
2022-11-29T09:36:51.162Z,10.75
2022-11-29T09:39:17.890Z,12.40
2022-11-29T09:42:06.975Z,11.40
2022-11-29T09:45:01.303Z,11.20
2022-11-29T09:47:52.632Z,12.07
2022-11-29T09:50:32.195Z,12.27
2022-11-29T09:52:58.580Z,11.40
2022-11-29T09:56:02.729Z,12.75
2022-11-29T09:58:40.549Z,11.18
2022-11-29T10:01:12.773Z,10.90
2022-11-29T10:03:47.919Z,11.40
2022-11-29T10:06:28.155Z,11.38
2022-11-29T10:09:04.487Z,10.70
2022-11-29T10:11:47.836Z,11.90
2022-11-29T10:14:22.308Z,12.18
2022-11-29T10:17:09.990Z,11.23
2022-11-29T10:22:23.327Z,10.38
2022-11-29T10:24:54.746Z,10.98
2022-11-29T10:27:23.910Z,11.35
2022-11-29T10:32:21.335Z,12.23
2022-11-29T10:34:49.583Z,12.35
2022-11-29T10:37:19.125Z,11.85
2022-11-29T10:39:53.057Z,12.23
2022-11-29T10:42:40.844Z,12.68
2022-11-29T10:45:21.634Z,14.10
2022-11-29T10:47:49.776Z,13.73
2022-11-29T10:50:28.491Z,14.35
2022-11-29T10:53:19.979Z,14.13
2022-11-29T10:56:00.635Z,12.43
2022-11-29T10:58:29.185Z,11.90
2022-11-29T11:01:00.378Z,12.65
2022-11-29T11:03:32.914Z,12.57
2022-11-29T11:06:03.590Z,12.95
2022-11-29T11:08:32.741Z,14.90
2022-11-29T11:11:02.141Z,13.70
2022-11-29T11:13:31.232Z,14.43
2022-11-29T11:16:15.977Z,14.25
2022-11-29T11:18:43.083Z,13.15
2022-11-29T11:21:12.165Z,13.70
2022-11-29T11:23:55.989Z,13.60
2022-11-29T11:26:24.101Z,12.88
2022-11-29T11:29:00.273Z,12.73
2022-11-29T11:31:34.442Z,13.35
2022-11-29T11:34:37.859Z,12.95
2022-11-29T11:37:19.726Z,12.85
2022-11-29T11:39:48.557Z,13.48
2022-11-29T11:42:39.086Z,15.05
2022-11-29T11:45:11.593Z,12.90
2022-11-29T11:47:51.255Z,13.63
2022-11-29T11:50:25.339Z,13.60
2022-11-29T11:52:56.239Z,12.65
2022-11-29T11:55:23.212Z,12.52
2022-11-29T11:58:09.857Z,13.00
2022-11-29T12:03:28.528Z,12.90
2022-11-29T12:06:03.145Z,12.95
2022-11-29T12:08:30.768Z,12.80
2022-11-29T12:11:07.284Z,16.17
2022-11-29T12:13:38.824Z,12.88
2022-11-29T12:16:14.497Z,14.50
2022-11-29T12:18:47.159Z,14.77
2022-11-29T12:21:16.369Z,14.25
2022-11-29T12:26:48.890Z,13.75
2022-11-29T12:29:18.315Z,12.75
2022-11-29T12:31:50.682Z,13.45
2022-11-29T12:34:26.183Z,11.98
2022-11-29T12:37:20.837Z,14.32
2022-11-29T12:39:59.341Z,12.50
2022-11-29T12:42:47.650Z,14.10
2022-11-29T12:45:32.356Z,12.13
2022-11-29T12:48:17.714Z,13.75
2022-11-29T12:51:07.707Z,13.05
2022-11-29T12:53:52.462Z,13.65
2022-11-29T12:56:36.790Z,11.82
2022-11-29T12:59:27.691Z,12.43
2022-11-29T13:02:32.278Z,11.85
2022-11-29T13:05:29.784Z,13.23
2022-11-29T13:08:08.461Z,13.00
2022-11-29T13:10:56.115Z,11.38
2022-11-29T13:16:04.640Z,12.52
2022-11-29T13:18:58.941Z,13.25
2022-11-29T13:21:35.853Z,13.80
2022-11-29T13:24:11.747Z,13.45
2022-11-29T13:26:41.223Z,13.85
2022-11-29T13:29:15.276Z,14.05
2022-11-29T13:31:42.603Z,12.05
2022-11-29T13:34:41.058Z,14.35
2022-11-29T13:37:26.651Z,11.80
2022-11-29T13:40:17.639Z,12.95
2022-11-29T13:42:58.784Z,11.55
2022-11-29T13:45:35.130Z,12.23
2022-11-29T13:48:24.935Z,12.23
2022-11-29T13:50:56.518Z,13.88
2022-11-29T13:53:48.163Z,11.05
2022-11-29T13:56:47.405Z,12.48
2022-11-29T13:59:22.508Z,14.30
2022-11-29T14:01:54.111Z,13.85
2022-11-29T14:04:25.647Z,11.15
2022-11-29T14:07:01.942Z,13.18
2022-11-29T14:09:43.731Z,13.25
2022-11-29T14:12:48.846Z,10.93
2022-11-29T14:15:21.496Z,10.93
2022-11-29T14:17:54.685Z,11.23
2022-11-29T14:20:24.975Z,11.27
2022-11-29T14:23:07.481Z,12.63
2022-11-29T14:25:53.440Z,11.52
2022-11-29T14:28:22.740Z,12.43
2022-11-29T14:33:21.401Z,11.88
2022-11-29T14:36:04.685Z,11.65
2022-11-29T14:39:09.663Z,10.60
2022-11-29T14:41:50.990Z,11.73
2022-11-29T14:44:17.541Z,11.43
2022-11-29T14:46:45.096Z,9.35
2022-11-29T14:49:24.564Z,11.68
2022-11-29T14:52:15.301Z,10.80
2022-11-29T14:54:56.397Z,9.38
2022-11-29T14:57:48.296Z,9.98
2022-11-29T15:00:35.255Z,9.60
2022-11-29T15:03:18.435Z,9.30
2022-11-29T15:05:50.838Z,9.25
2022-11-29T15:08:26.065Z,8.18
2022-11-29T15:11:06.198Z,8.43
2022-11-29T15:13:35.878Z,8.05
2022-11-29T15:19:20.181Z,8.05
2022-11-29T15:21:46.596Z,8.45
2022-11-29T15:24:15.734Z,7.78
2022-11-29T15:26:57.327Z,8.45
2022-11-29T15:29:24.737Z,7.97
2022-11-29T15:31:57.509Z,7.32
2022-11-29T15:34:30.318Z,7.60
2022-11-29T15:36:57.545Z,7.85
2022-11-29T15:39:26.818Z,7.82
2022-11-29T15:41:53.722Z,8.38
2022-11-29T15:44:23.297Z,8.07
2022-11-29T15:46:49.761Z,7.15
2022-11-29T15:49:27.093Z,6.40
2022-11-29T15:51:59.961Z,7.55
2022-11-29T15:54:49.988Z,7.63
2022-11-29T15:57:26.312Z,7.43
2022-11-29T15:59:57.013Z,9.20
2022-11-29T16:02:27.971Z,7.93
2022-11-29T16:05:08.544Z,8.43
2022-11-29T16:07:37.275Z,8.07
2022-11-29T16:10:12.768Z,8.00
2022-11-29T16:12:59.314Z,9.77
2022-11-29T16:15:35.688Z,9.32
2022-11-29T16:18:14.229Z,9.63
2022-11-29T16:20:41.040Z,9.88
2022-11-29T16:23:13.198Z,9.75
2022-11-29T16:26:11.713Z,9.30
2022-11-29T16:28:43.253Z,12.05
2022-11-29T16:31:18.002Z,10.25
2022-11-29T16:33:47.521Z,10.15
2022-11-29T16:38:49.085Z,9.40
2022-11-29T16:41:29.378Z,9.23
2022-11-29T16:43:57.430Z,9.50
2022-11-29T16:46:26.489Z,9.70
2022-11-29T16:48:54.937Z,9.10
2022-11-29T16:51:48.083Z,8.85
2022-11-29T16:54:21.086Z,8.60
2022-11-29T16:56:47.806Z,9.77
2022-11-29T16:59:27.246Z,9.57
2022-11-29T17:01:55.705Z,8.95
2022-11-29T17:04:23.971Z,9.20
2022-11-29T17:06:52.004Z,9.93
2022-11-29T17:09:25.237Z,9.50
2022-11-29T17:11:52.263Z,8.95
2022-11-29T17:14:18.848Z,8.68
2022-11-29T17:16:49.107Z,9.15
2022-11-29T17:19:16.370Z,8.35
2022-11-29T17:21:43.102Z,9.23
2022-11-29T17:24:13.426Z,7.95
2022-11-29T17:26:41.282Z,8.15
2022-11-29T17:29:10.366Z,8.55
2022-11-29T17:31:37.419Z,8.38
2022-11-29T17:34:04.577Z,8.57
2022-11-29T17:36:31.643Z,6.60
2022-11-29T17:39:02.652Z,9.60
2022-11-29T17:41:30.397Z,8.82
2022-11-29T17:43:57.874Z,8.68
2022-11-29T17:46:26.184Z,9.40
2022-11-29T17:48:53.511Z,8.68
2022-11-29T17:51:50.656Z,8.95
2022-11-29T17:54:09.356Z,9.35
2022-11-29T17:56:35.869Z,9.48
2022-11-29T17:59:04.032Z,11.10
2022-11-29T18:01:35.844Z,10.77
2022-11-29T18:04:04.596Z,10.27
2022-11-29T18:06:37.088Z,9.02
2022-11-29T18:09:05.398Z,9.75
2022-11-29T18:11:46.358Z,7.55
2022-11-29T18:14:18.882Z,9.07
2022-11-29T18:16:45.651Z,8.02
2022-11-29T18:19:15.213Z,6.50
2022-11-29T18:24:08.664Z,6.68
2022-11-29T18:26:36.403Z,6.72
2022-11-29T18:29:03.458Z,11.75
2022-11-29T18:31:32.802Z,8.68
2022-11-29T18:36:33.351Z,8.05
2022-11-29T18:39:05.465Z,7.60
2022-11-29T18:41:32.441Z,7.80
2022-11-29T18:43:59.905Z,7.72
2022-11-29T18:46:32.032Z,7.32
2022-11-29T18:49:00.991Z,7.50
2022-11-29T18:51:29.363Z,8.00
2022-11-29T18:53:57.137Z,8.30
2022-11-29T18:56:26.792Z,8.02
2022-11-29T18:58:59.230Z,8.50
2022-11-29T19:01:28.548Z,6.90
2022-11-29T19:06:28.903Z,6.40
2022-11-29T19:08:58.445Z,9.05
2022-11-29T19:11:27.469Z,7.28
2022-11-29T19:13:56.753Z,8.38
2022-11-29T19:16:24.767Z,9.30
2022-11-29T19:18:53.516Z,10.18
2022-11-29T19:21:22.415Z,12.57
2022-11-29T19:23:57.257Z,10.75
2022-11-29T19:26:27.620Z,10.68
2022-11-29T19:28:55.104Z,11.02
2022-11-29T19:31:27.020Z,11.13
2022-11-29T19:33:55.113Z,12.93
2022-11-29T19:36:29.667Z,12.88
2022-11-29T19:38:57.246Z,12.20
2022-11-29T19:41:27.263Z,12.63
2022-11-29T19:43:56.133Z,13.60
2022-11-29T19:46:25.601Z,14.55
2022-11-29T19:51:20.845Z,12.02
2022-11-29T19:53:47.975Z,13.27
2022-11-29T19:56:16.611Z,11.10
2022-11-29T19:58:44.042Z,11.57
2022-11-29T20:01:16.295Z,11.05
2022-11-29T20:03:44.340Z,9.32
2022-11-29T20:06:11.148Z,11.20
2022-11-29T20:08:38.258Z,12.98
2022-11-29T20:11:10.422Z,12.02
2022-11-29T20:13:41.148Z,10.70
2022-11-29T20:16:10.609Z,11.88
2022-11-29T20:18:39.419Z,11.25
2022-11-29T20:21:12.375Z,10.75
2022-11-29T20:23:40.369Z,9.75
2022-11-29T20:26:12.228Z,11.90
2022-11-29T20:28:38.705Z,11.70
2022-11-29T20:31:11.924Z,12.13
2022-11-29T20:33:40.608Z,12.30
2022-11-29T20:36:32.607Z,11.23
2022-11-29T20:39:20.138Z,10.07
2022-11-29T20:42:28.374Z,11.45
2022-11-29T20:45:00.313Z,11.15
2022-11-29T20:47:32.880Z,12.98
2022-11-29T20:49:59.642Z,12.65
2022-11-29T20:52:40.447Z,12.43
2022-11-29T20:55:07.182Z,10.63
2022-11-29T20:57:33.950Z,11.68
2022-11-29T21:00:00.565Z,11.90
2022-11-29T21:02:27.015Z,11.55
2022-11-29T21:04:53.832Z,12.70
2022-11-29T21:07:20.913Z,11.93
2022-11-29T21:09:47.767Z,13.70
2022-11-29T21:12:14.834Z,12.77
2022-11-29T21:14:42.002Z,13.48
2022-11-29T21:17:09.559Z,13.02
2022-11-29T21:19:36.881Z,11.82
2022-11-29T21:22:17.245Z,11.77
2022-11-29T21:25:05.417Z,12.95
2022-11-29T21:27:34.620Z,12.82
2022-11-29T21:30:05.816Z,13.82
2022-11-29T21:32:33.700Z,12.93
2022-11-29T21:35:00.334Z,13.30
2022-11-29T21:37:30.211Z,12.75
2022-11-29T21:39:57.604Z,14.25
2022-11-29T21:42:24.351Z,13.55
2022-11-29T21:44:50.969Z,13.50
2022-11-29T21:47:17.617Z,12.50
2022-11-29T21:49:44.387Z,13.02
2022-11-29T21:52:11.065Z,14.93
2022-11-29T21:54:37.624Z,13.63
2022-11-29T21:57:04.324Z,14.07
2022-11-29T21:59:31.010Z,14.52
2022-11-29T22:01:57.693Z,14.23
2022-11-29T22:04:25.249Z,14.15
2022-11-29T22:06:51.909Z,12.63
2022-11-29T22:09:18.413Z,13.52
2022-11-29T22:12:25.936Z,16.00
2022-11-29T22:14:52.047Z,15.00
2022-11-29T22:17:18.598Z,15.25
2022-11-29T22:19:45.205Z,14.90
2022-11-29T22:22:12.100Z,13.57
2022-11-29T22:24:38.747Z,12.40
2022-11-29T22:27:05.495Z,14.68
2022-11-29T22:29:32.257Z,13.57
2022-11-29T22:31:59.651Z,14.82
2022-11-29T22:34:27.180Z,14.93
2022-11-29T22:36:54.064Z,15.73
2022-11-29T22:39:20.718Z,14.82
2022-11-29T22:41:53.537Z,14.07
2022-11-29T22:44:21.008Z,15.02
2022-11-29T22:46:47.577Z,14.13
2022-11-29T22:49:14.311Z,14.68
2022-11-29T22:51:40.853Z,11.15
2022-11-29T22:54:08.990Z,14.38
2022-11-29T22:56:38.721Z,12.38
2022-11-29T22:59:05.452Z,14.43
2022-11-29T23:01:34.822Z,14.73
2022-11-29T23:06:33.290Z,11.48
2022-11-29T23:11:30.558Z,13.43
2022-11-29T23:13:57.480Z,14.25
2022-11-29T23:16:26.594Z,14.60
2022-11-29T23:18:55.042Z,13.13
2022-11-29T23:21:24.133Z,13.35
2022-11-29T23:23:55.993Z,13.27
2022-11-29T23:26:29.073Z,14.43
2022-11-29T23:28:56.276Z,12.30
2022-11-29T23:31:23.797Z,13.55
2022-11-29T23:33:50.687Z,12.15
2022-11-29T23:36:17.458Z,13.50
2022-11-29T23:38:43.956Z,13.60
2022-11-29T23:41:11.636Z,13.88
2022-11-29T23:43:40.440Z,12.27
2022-11-29T23:46:14.438Z,13.23
2022-11-29T23:48:41.513Z,13.88
2022-11-29T23:51:08.272Z,13.63
2022-11-29T23:53:34.737Z,14.18
2022-11-29T23:56:14.298Z,12.68
2022-11-29T23:58:41.650Z,13.48
